createdAt,value
2018-11-05T00:01:00.404Z,117.27
2018-11-05T00:03:28.788Z,109.77
2018-11-05T00:05:57.199Z,97.07
2018-11-05T00:08:25.616Z,116.30
2018-11-05T00:10:54.030Z,96.57
2018-11-05T00:13:22.459Z,100.03
2018-11-05T00:15:50.863Z,98.57
2018-11-05T00:18:19.271Z,103.60
2018-11-05T00:20:47.685Z,96.83
2018-11-05T00:23:16.074Z,102.27
2018-11-05T00:25:44.494Z,97.30
2018-11-05T00:28:12.884Z,90.60
2018-11-05T00:30:41.284Z,91.23
2018-11-05T00:33:09.740Z,91.50
2018-11-05T00:35:38.204Z,88.17
2018-11-05T00:38:06.702Z,87.70
2018-11-05T00:40:35.125Z,85.07
2018-11-05T00:43:03.529Z,83.33
2018-11-05T00:45:31.948Z,81.33
2018-11-05T00:48:00.358Z,91.10
2018-11-05T00:50:28.813Z,94.10
2018-11-05T00:52:57.307Z,99.80
2018-11-05T00:55:25.772Z,116.77
2018-11-05T00:57:54.187Z,111.53
2018-11-05T01:00:22.604Z,115.10
2018-11-05T01:02:50.988Z,119.50
2018-11-05T01:05:20.080Z,107.67
2018-11-05T01:07:48.490Z,126.40
2018-11-05T01:10:17.132Z,132.97
2018-11-05T01:12:45.526Z,127.73
2018-11-05T01:15:15.218Z,117.37
2018-11-05T01:17:43.700Z,111.23
2018-11-05T01:20:13.440Z,143.37
2018-11-05T01:22:41.845Z,194.67
2018-11-05T01:25:10.384Z,126.70
2018-11-05T01:27:38.776Z,138.17
2018-11-05T01:30:09.825Z,133.93
2018-11-05T01:32:38.340Z,129.50
2018-11-05T01:35:08.188Z,121.63
2018-11-05T01:37:36.709Z,118.33
2018-11-05T01:40:07.064Z,121.97
2018-11-05T01:42:35.483Z,120.70
2018-11-05T01:45:05.352Z,116.43
2018-11-05T01:47:33.787Z,112.40
2018-11-05T01:50:02.215Z,107.33
2018-11-05T01:52:30.669Z,106.67
2018-11-05T01:54:59.097Z,103.93
2018-11-05T01:57:27.539Z,109.13
2018-11-05T01:59:55.983Z,108.70
2018-11-05T02:02:24.395Z,111.90
2018-11-05T02:04:52.797Z,110.07
2018-11-05T02:07:21.299Z,111.20
2018-11-05T02:09:49.698Z,106.50
2018-11-05T02:12:18.188Z,104.03
2018-11-05T02:14:46.608Z,104.23
2018-11-05T02:17:15.182Z,106.07
2018-11-05T02:19:44.235Z,103.97
2018-11-05T02:22:13.315Z,106.23
2018-11-05T02:24:41.830Z,103.63
2018-11-05T02:27:10.336Z,102.07
2018-11-05T02:29:38.720Z,103.60
2018-11-05T02:32:07.118Z,98.17
2018-11-05T02:34:35.571Z,97.40
2018-11-05T02:37:03.992Z,94.97
2018-11-05T02:39:32.376Z,94.83
2018-11-05T02:42:00.822Z,95.80
2018-11-05T02:44:29.215Z,93.40
2018-11-05T02:46:57.680Z,94.37
2018-11-05T02:49:26.665Z,93.57
2018-11-05T02:51:55.084Z,89.20
2018-11-05T02:54:23.471Z,89.77
2018-11-05T02:56:51.871Z,86.67
2018-11-05T02:59:20.400Z,88.30
2018-11-05T03:01:48.797Z,88.43
2018-11-05T03:04:17.200Z,86.40
2018-11-05T03:06:45.591Z,84.97
2018-11-05T03:09:13.981Z,83.63
2018-11-05T03:11:42.374Z,85.73
2018-11-05T03:14:10.778Z,86.43
2018-11-05T03:16:39.211Z,81.83
2018-11-05T03:19:07.621Z,81.63
2018-11-05T03:21:36.014Z,79.20
2018-11-05T03:24:04.443Z,80.17
2018-11-05T03:26:33.112Z,78.63
2018-11-05T03:29:01.544Z,77.40
2018-11-05T03:31:29.978Z,78.63
2018-11-05T03:33:58.466Z,76.10
2018-11-05T03:36:26.866Z,74.03
2018-11-05T03:38:55.248Z,73.50
2018-11-05T03:41:23.631Z,74.33
2018-11-05T03:43:52.027Z,72.97
2018-11-05T03:46:20.437Z,72.77
2018-11-05T03:48:48.823Z,70.57
2018-11-05T03:51:17.215Z,68.00
2018-11-05T03:53:45.623Z,68.33
2018-11-05T03:56:14.051Z,66.53
2018-11-05T03:58:42.391Z,69.33
2018-11-05T04:01:10.768Z,67.40
2018-11-05T04:03:39.159Z,66.80
2018-11-05T04:06:07.566Z,68.07
2018-11-05T04:08:35.930Z,68.23
2018-11-05T04:11:04.515Z,65.80
2018-11-05T04:13:32.912Z,65.30
2018-11-05T04:16:01.453Z,63.20
2018-11-05T04:18:29.696Z,63.57
2018-11-05T04:20:58.091Z,62.47
2018-11-05T04:23:26.464Z,61.73
2018-11-05T04:25:54.895Z,61.13
2018-11-05T04:28:23.286Z,59.97
2018-11-05T04:30:51.675Z,59.83
2018-11-05T04:33:20.240Z,59.23
2018-11-05T04:35:48.624Z,58.23
2018-11-05T04:38:16.981Z,58.50
2018-11-05T04:40:45.404Z,57.73
2018-11-05T04:43:13.794Z,57.33
2018-11-05T04:45:42.324Z,55.67
2018-11-05T04:48:10.739Z,54.67
2018-11-05T04:50:39.125Z,57.30
2018-11-05T04:53:07.514Z,55.57
2018-11-05T04:55:35.903Z,53.77
2018-11-05T04:58:04.283Z,54.03
2018-11-05T05:00:32.683Z,52.93
2018-11-05T05:03:01.059Z,52.87
2018-11-05T05:05:29.448Z,53.87
2018-11-05T05:07:57.819Z,51.63
2018-11-05T05:10:26.214Z,50.43
2018-11-05T05:12:54.582Z,51.07
2018-11-05T05:15:22.983Z,50.53
2018-11-05T05:17:51.358Z,50.10
2018-11-05T05:20:19.742Z,51.77
2018-11-05T05:22:48.257Z,50.50
2018-11-05T05:25:16.506Z,48.37
2018-11-05T05:27:44.893Z,50.13
2018-11-05T05:30:15.750Z,48.03
2018-11-05T05:32:44.871Z,49.27
2018-11-05T05:35:13.405Z,47.20
2018-11-05T05:37:42.324Z,47.27
2018-11-05T05:40:10.704Z,47.33
2018-11-05T05:42:39.827Z,44.60
2018-11-05T05:45:09.288Z,43.47
2018-11-05T05:47:37.692Z,41.47
2018-11-05T05:50:08.821Z,53.27
2018-11-05T05:52:37.209Z,53.27
2018-11-05T05:55:06.599Z,50.27
2018-11-05T05:57:34.975Z,49.23
2018-11-05T06:00:03.494Z,48.93
2018-11-05T06:02:31.797Z,43.03
2018-11-05T06:05:00.186Z,42.10
2018-11-05T06:07:28.583Z,38.97
2018-11-05T06:09:57.002Z,47.93
2018-11-05T06:12:25.512Z,52.93
2018-11-05T06:14:53.900Z,62.83
2018-11-05T06:17:22.275Z,52.37
2018-11-05T06:19:50.767Z,54.67
2018-11-05T06:22:19.148Z,52.87
2018-11-05T06:24:47.551Z,53.80
2018-11-05T06:27:15.958Z,54.50
2018-11-05T06:29:44.340Z,57.07
2018-11-05T06:32:12.736Z,64.60
2018-11-05T06:34:41.140Z,58.00
2018-11-05T06:37:09.514Z,54.50
2018-11-05T06:39:37.890Z,57.73
2018-11-05T06:42:06.313Z,57.93
2018-11-05T06:44:34.783Z,56.30
2018-11-05T06:47:03.227Z,55.53
2018-11-05T06:49:31.613Z,53.27
2018-11-05T06:52:00.004Z,53.93
2018-11-05T06:54:28.380Z,53.27
2018-11-05T06:56:56.856Z,51.13
2018-11-05T06:59:25.255Z,50.20
2018-11-05T07:01:53.648Z,49.63
2018-11-05T07:04:22.055Z,47.60
2018-11-05T07:06:50.453Z,47.00
2018-11-05T07:09:18.842Z,47.00
2018-11-05T07:11:47.259Z,45.33
2018-11-05T07:14:15.640Z,46.57
2018-11-05T07:16:44.011Z,45.33
2018-11-05T07:19:13.079Z,44.80
2018-11-05T07:21:41.123Z,44.23
2018-11-05T07:24:09.559Z,43.97
2018-11-05T07:26:38.021Z,45.13
2018-11-05T07:29:06.345Z,38.60
2018-11-05T07:31:34.727Z,40.20
2018-11-05T07:34:03.360Z,44.30
2018-11-05T07:36:31.541Z,53.93
2018-11-05T07:38:59.924Z,49.60
2018-11-05T07:41:28.314Z,59.40
2018-11-05T07:43:56.832Z,57.30
2018-11-05T07:46:25.212Z,54.97
2018-11-05T07:48:53.587Z,54.00
2018-11-05T07:51:21.995Z,51.43
2018-11-05T07:53:50.407Z,66.93
2018-11-05T07:56:19.250Z,81.60
2018-11-05T07:58:47.675Z,87.10
2018-11-05T08:01:16.061Z,81.50
2018-11-05T08:03:44.446Z,73.33
2018-11-05T08:06:12.847Z,76.50
2018-11-05T08:08:41.235Z,72.40
2018-11-05T08:11:09.638Z,70.57
2018-11-05T08:13:38.196Z,72.70
2018-11-05T08:16:06.712Z,69.87
2018-11-05T08:18:35.184Z,69.83
2018-11-05T08:21:03.579Z,66.60
2018-11-05T08:23:31.968Z,66.23
2018-11-05T08:26:00.419Z,65.13
2018-11-05T08:28:28.815Z,66.07
2018-11-05T08:30:57.335Z,64.47
2018-11-05T08:33:25.711Z,61.47
2018-11-05T08:35:54.128Z,58.13
2018-11-05T08:38:22.507Z,55.47
2018-11-05T08:40:50.922Z,61.73
2018-11-05T08:43:19.323Z,68.80
2018-11-05T08:45:47.798Z,68.90
2018-11-05T08:48:16.199Z,69.27
2018-11-05T08:50:44.698Z,64.83
2018-11-05T08:53:13.056Z,65.17
2018-11-05T08:55:41.459Z,64.33
2018-11-05T08:58:09.881Z,61.80
2018-11-05T09:00:43.744Z,63.00
2018-11-05T09:03:12.127Z,63.20
2018-11-05T09:05:40.508Z,67.13
2018-11-05T09:08:08.934Z,81.33
2018-11-05T09:10:37.745Z,93.13
2018-11-05T09:13:06.307Z,109.10
2018-11-05T09:15:34.717Z,107.43
2018-11-05T09:18:03.114Z,115.53
2018-11-05T09:20:31.556Z,99.23
2018-11-05T09:22:59.933Z,95.77
2018-11-05T09:25:28.327Z,96.50
2018-11-05T09:27:56.776Z,93.97
2018-11-05T09:30:25.816Z,95.30
2018-11-05T09:32:54.248Z,96.20
2018-11-05T09:35:22.623Z,100.23
2018-11-05T09:37:51.030Z,101.40
2018-11-05T09:40:20.972Z,109.50
2018-11-05T09:42:49.961Z,99.03
2018-11-05T09:45:20.406Z,98.37
2018-11-05T09:47:48.801Z,97.53
2018-11-05T09:50:17.988Z,95.13
2018-11-05T09:52:46.410Z,91.20
2018-11-05T09:55:16.123Z,88.53
2018-11-05T09:57:44.536Z,112.47
2018-11-05T10:00:15.968Z,126.83
2018-11-05T10:02:49.685Z,130.37
2018-11-05T10:05:18.067Z,113.43
2018-11-05T10:07:47.126Z,119.20
2018-11-05T10:10:16.288Z,113.43
2018-11-05T10:12:44.950Z,110.30
2018-11-05T10:15:14.468Z,106.70
2018-11-05T10:17:42.882Z,104.23
2018-11-05T10:20:14.806Z,104.30
2018-11-05T10:22:43.820Z,101.77
2018-11-05T10:25:13.026Z,102.37
2018-11-05T10:27:41.474Z,101.30
2018-11-05T10:30:15.586Z,97.77
2018-11-05T10:32:44.383Z,97.87
2018-11-05T10:35:13.795Z,98.40
2018-11-05T10:37:42.200Z,118.70
2018-11-05T10:40:13.203Z,117.60
2018-11-05T10:42:42.416Z,112.23
2018-11-05T10:45:12.409Z,106.47
2018-11-05T10:47:40.888Z,102.43
2018-11-05T10:50:10.600Z,99.37
2018-11-05T10:52:39.033Z,98.00
2018-11-05T10:55:07.890Z,100.33
2018-11-05T10:57:36.296Z,100.53
2018-11-05T11:00:07.314Z,89.87
2018-11-05T11:02:37.662Z,90.97
2018-11-05T11:05:07.176Z,88.10
2018-11-05T11:07:36.173Z,90.13
2018-11-05T11:10:05.491Z,86.63
2018-11-05T11:12:33.921Z,85.77
2018-11-05T11:15:02.345Z,86.30
2018-11-05T11:17:30.781Z,83.90
2018-11-05T11:19:59.225Z,82.33
2018-11-05T11:22:27.643Z,80.83
2018-11-05T11:24:56.041Z,81.23
2018-11-05T11:27:24.559Z,82.57
2018-11-05T11:29:52.983Z,81.13
2018-11-05T11:32:21.398Z,80.40
2018-11-05T11:34:49.815Z,78.93
2018-11-05T11:37:18.368Z,79.63
2018-11-05T11:39:46.686Z,76.63
2018-11-05T11:42:15.099Z,75.83
2018-11-05T11:44:43.670Z,73.30
2018-11-05T11:47:12.040Z,73.90
2018-11-05T11:49:40.458Z,74.33
2018-11-05T11:52:08.905Z,70.50
2018-11-05T11:54:37.365Z,70.00
2018-11-05T11:57:06.625Z,72.23
2018-11-05T11:59:35.042Z,73.43
2018-11-05T12:02:08.780Z,69.67
2018-11-05T12:04:37.138Z,67.60
2018-11-05T12:07:06.197Z,69.70
2018-11-05T12:09:34.607Z,65.20
2018-11-05T12:12:03.393Z,63.00
2018-11-05T12:14:31.865Z,67.33
2018-11-05T12:17:00.255Z,64.27
2018-11-05T12:19:28.688Z,63.70
2018-11-05T12:21:57.235Z,62.10
2018-11-05T12:24:25.667Z,61.23
2018-11-05T12:26:54.079Z,57.83
2018-11-05T12:29:22.477Z,62.70
2018-11-05T12:31:50.887Z,63.93
2018-11-05T12:34:19.376Z,59.93
2018-11-05T12:36:47.808Z,65.03
2018-11-05T12:39:16.221Z,65.03
2018-11-05T12:41:44.627Z,63.50
2018-11-05T12:44:13.033Z,60.53
2018-11-05T12:46:42.123Z,62.03
2018-11-05T12:49:10.524Z,58.83
2018-11-05T12:51:38.945Z,59.63
2018-11-05T12:54:07.444Z,61.50
2018-11-05T12:56:35.857Z,57.60
2018-11-05T12:59:04.452Z,58.83
2018-11-05T13:01:32.869Z,57.20
2018-11-05T13:04:01.321Z,54.50
2018-11-05T13:06:30.013Z,61.03
2018-11-05T13:08:58.547Z,62.50
2018-11-05T13:11:26.971Z,66.13
2018-11-05T13:13:55.635Z,66.53
2018-11-05T13:16:24.164Z,66.70
2018-11-05T13:18:53.160Z,67.10
2018-11-05T13:21:21.711Z,77.37
2018-11-05T13:23:50.105Z,82.60
2018-11-05T13:26:18.531Z,82.30
2018-11-05T13:28:47.644Z,82.50
2018-11-05T13:31:16.228Z,81.23
2018-11-05T13:33:44.609Z,77.10
2018-11-05T13:36:13.955Z,75.63
2018-11-05T13:38:42.424Z,75.50
2018-11-05T13:41:10.786Z,77.53
2018-11-05T13:43:40.083Z,74.43
2018-11-05T13:46:08.724Z,70.93
2018-11-05T13:48:37.561Z,69.90
2018-11-05T13:51:05.888Z,83.20
2018-11-05T13:53:34.308Z,74.47
2018-11-05T13:56:03.371Z,81.73
2018-11-05T13:58:31.799Z,82.77
2018-11-05T14:01:00.187Z,84.63
2018-11-05T14:03:28.597Z,82.57
2018-11-05T14:05:57.011Z,83.40
2018-11-05T14:08:25.478Z,82.53
2018-11-05T14:10:53.989Z,92.90
2018-11-05T14:13:22.372Z,87.97
2018-11-05T14:15:51.761Z,108.27
2018-11-05T14:18:20.286Z,110.07
2018-11-05T14:20:49.599Z,103.00
2018-11-05T14:23:19.589Z,93.27
2018-11-05T14:25:48.156Z,94.27
2018-11-05T14:28:16.561Z,95.37
2018-11-05T14:30:44.839Z,92.00
2018-11-05T14:33:13.381Z,89.27
2018-11-05T14:35:42.780Z,93.20
2018-11-05T14:38:11.241Z,91.60
2018-11-05T14:40:39.629Z,89.93
2018-11-05T14:43:08.062Z,89.93
2018-11-05T14:45:36.484Z,89.00
2018-11-05T14:48:05.884Z,86.67
2018-11-05T14:50:34.454Z,101.53
2018-11-05T14:53:05.075Z,124.03
2018-11-05T14:55:33.677Z,127.03
2018-11-05T14:58:02.815Z,113.90
2018-11-05T15:00:31.262Z,107.80
2018-11-05T15:03:00.706Z,109.00
2018-11-05T15:05:29.072Z,101.43
2018-11-05T15:07:59.402Z,99.57
2018-11-05T15:10:27.833Z,97.80
2018-11-05T15:12:56.848Z,95.40
2018-11-05T15:15:25.356Z,94.60
2018-11-05T15:17:53.761Z,95.17
2018-11-05T15:20:24.182Z,92.13
2018-11-05T15:22:53.060Z,87.37
2018-11-05T15:25:22.169Z,85.93
2018-11-05T15:27:51.970Z,107.47
2018-11-05T15:30:21.704Z,100.47
2018-11-05T15:32:51.227Z,93.73
2018-11-05T15:35:20.254Z,90.83
2018-11-05T15:37:50.280Z,106.30
2018-11-05T15:40:20.928Z,95.17
2018-11-05T15:42:50.407Z,93.07
2018-11-05T15:45:20.168Z,95.23
2018-11-05T15:47:48.582Z,93.40
2018-11-05T15:50:19.507Z,94.13
2018-11-05T15:52:48.925Z,90.97
2018-11-05T15:55:16.978Z,93.07
2018-11-05T15:57:46.739Z,89.10
2018-11-05T16:00:17.943Z,92.77
2018-11-05T16:02:48.719Z,110.83
2018-11-05T16:05:17.244Z,112.40
2018-11-05T16:07:45.994Z,114.93
2018-11-05T16:10:14.802Z,114.77
2018-11-05T16:12:43.198Z,106.47
2018-11-05T16:15:12.248Z,109.73
2018-11-05T16:17:40.707Z,106.87
2018-11-05T16:20:11.981Z,109.27
2018-11-05T16:22:40.423Z,106.73
2018-11-05T16:25:08.964Z,105.63
2018-11-05T16:27:37.376Z,119.53
2018-11-05T16:30:08.171Z,111.33
2018-11-05T16:32:36.588Z,105.70
2018-11-05T16:35:05.278Z,103.07
2018-11-05T16:37:33.601Z,103.83
2018-11-05T16:40:02.137Z,132.37
2018-11-05T16:42:30.548Z,128.60
2018-11-05T16:44:58.963Z,172.17
2018-11-05T16:47:27.381Z,217.03
2018-11-05T16:49:55.785Z,191.20
2018-11-05T16:52:24.280Z,195.47
2018-11-05T16:54:53.352Z,186.30
2018-11-05T16:57:21.820Z,197.93
2018-11-05T16:59:50.236Z,195.93
2018-11-05T17:02:18.985Z,186.27
2018-11-05T17:04:47.423Z,190.40
2018-11-05T17:07:16.118Z,190.40
2018-11-05T17:09:44.540Z,251.77
2018-11-05T17:12:13.009Z,234.73
2018-11-05T17:14:41.507Z,238.93
2018-11-05T17:17:09.935Z,229.93
2018-11-05T17:19:38.421Z,222.60
2018-11-05T17:22:06.832Z,244.50
2018-11-05T17:24:36.190Z,341.93
2018-11-05T17:27:05.335Z,290.43
2018-11-05T17:29:34.155Z,275.03
2018-11-05T17:32:02.572Z,250.87
2018-11-05T17:34:31.024Z,252.17
2018-11-05T17:36:59.516Z,274.37
2018-11-05T17:39:27.968Z,324.43
2018-11-05T17:41:56.389Z,403.57
2018-11-05T17:44:24.823Z,374.93
2018-11-05T17:46:53.338Z,315.30
2018-11-05T17:49:21.796Z,306.17
2018-11-05T17:51:50.307Z,296.00
2018-11-05T17:54:18.753Z,297.77
2018-11-05T17:56:47.301Z,292.07
2018-11-05T17:59:16.477Z,294.33
2018-11-05T18:01:45.654Z,285.90
2018-11-05T18:04:14.193Z,279.67
2018-11-05T18:06:42.657Z,280.23
2018-11-05T18:09:11.765Z,325.47
2018-11-05T18:11:41.322Z,330.03
2018-11-05T18:14:10.674Z,305.40
2018-11-05T18:16:39.127Z,280.60
2018-11-05T18:19:07.688Z,265.77
2018-11-05T18:21:35.962Z,277.10
2018-11-05T18:24:04.423Z,275.37
2018-11-05T18:26:32.820Z,273.53
2018-11-05T18:29:01.251Z,252.87
2018-11-05T18:31:29.756Z,214.10
2018-11-05T18:33:58.164Z,176.90
2018-11-05T18:36:26.564Z,199.30
2018-11-05T18:38:54.997Z,182.80
2018-11-05T18:41:23.432Z,203.13
2018-11-05T18:43:51.828Z,200.47
2018-11-05T18:46:20.360Z,215.40
2018-11-05T18:48:48.755Z,283.47
2018-11-05T18:51:17.192Z,294.00
2018-11-05T18:53:45.775Z,289.23
2018-11-05T18:56:14.216Z,284.00
2018-11-05T18:58:42.622Z,266.67
2018-11-05T19:01:11.039Z,250.90
2018-11-05T19:03:39.591Z,219.23
2018-11-05T19:06:08.029Z,218.07
2018-11-05T19:08:36.800Z,212.90
2018-11-05T19:11:05.971Z,208.10
2018-11-05T19:13:34.390Z,211.13
2018-11-05T19:16:02.940Z,208.83
2018-11-05T19:18:31.259Z,202.07
2018-11-05T19:20:59.736Z,213.40
2018-11-05T19:23:28.320Z,201.50
2018-11-05T19:25:56.546Z,200.87
2018-11-05T19:28:25.040Z,198.80
2018-11-05T19:30:53.610Z,192.87
2018-11-05T19:33:23.350Z,191.77
2018-11-05T19:35:51.785Z,189.57
2018-11-05T19:38:20.250Z,182.00
2018-11-05T19:40:48.719Z,185.47
2018-11-05T19:43:17.228Z,180.93
2018-11-05T19:45:46.195Z,252.33
2018-11-05T19:48:14.612Z,269.87
2018-11-05T19:50:43.109Z,262.63
2018-11-05T19:53:11.576Z,247.83
2018-11-05T19:55:40.071Z,224.77
2018-11-05T19:58:08.491Z,224.47
2018-11-05T20:00:36.978Z,215.80
2018-11-05T20:03:05.752Z,209.53
2018-11-05T20:05:34.306Z,203.00
2018-11-05T20:08:02.653Z,215.63
2018-11-05T20:10:31.124Z,204.60
2018-11-05T20:12:59.556Z,187.40
2018-11-05T20:15:28.042Z,178.47
2018-11-05T20:17:58.479Z,195.73
2018-11-05T20:20:27.289Z,188.80
2018-11-05T20:22:55.844Z,179.17
2018-11-05T20:25:24.276Z,183.67
2018-11-05T20:27:52.697Z,178.20
2018-11-05T20:30:24.525Z,170.27
2018-11-05T20:32:54.229Z,213.83
2018-11-05T20:35:22.652Z,224.97
2018-11-05T20:37:51.350Z,219.50
2018-11-05T20:40:20.825Z,280.17
2018-11-05T20:42:50.380Z,257.13
2018-11-05T20:45:19.444Z,314.33
2018-11-05T20:47:48.038Z,279.20
2018-11-05T20:50:16.995Z,268.37
2018-11-05T20:52:45.539Z,247.00
2018-11-05T20:55:15.182Z,254.70
2018-11-05T20:57:44.045Z,237.73
2018-11-05T21:00:14.082Z,226.27
2018-11-05T21:02:43.029Z,217.87
2018-11-05T21:05:11.556Z,212.13
2018-11-05T21:07:40.813Z,214.30
2018-11-05T21:10:10.605Z,211.03
2018-11-05T21:12:39.929Z,207.93
2018-11-05T21:15:13.072Z,202.53
2018-11-05T21:17:42.034Z,195.10
2018-11-05T21:20:10.937Z,220.60
2018-11-05T21:22:39.448Z,200.53
2018-11-05T21:25:08.283Z,195.77
2018-11-05T21:27:36.699Z,194.43
2018-11-05T21:30:07.213Z,191.00
2018-11-05T21:32:35.633Z,224.90
2018-11-05T21:35:04.095Z,187.47
2018-11-05T21:37:32.612Z,188.63
2018-11-05T21:40:01.028Z,224.67
2018-11-05T21:42:29.493Z,214.33
2018-11-05T21:44:57.897Z,222.23
2018-11-05T21:47:26.460Z,205.00
2018-11-05T21:49:54.803Z,196.33
2018-11-05T21:52:23.227Z,296.27
2018-11-05T21:54:51.808Z,269.30
2018-11-05T21:57:20.257Z,256.40
2018-11-05T21:59:48.646Z,235.63
2018-11-05T22:02:17.157Z,209.10
2018-11-05T22:04:45.593Z,183.97
2018-11-05T22:07:14.020Z,171.20
2018-11-05T22:09:42.511Z,168.20
2018-11-05T22:12:10.928Z,167.33
2018-11-05T22:14:39.483Z,150.37
2018-11-05T22:17:07.997Z,150.10
2018-11-05T22:19:36.406Z,141.70
2018-11-05T22:22:05.148Z,131.70
2018-11-05T22:24:33.608Z,140.37
2018-11-05T22:27:02.032Z,147.00
2018-11-05T22:29:30.452Z,157.17
2018-11-05T22:31:58.859Z,180.37
2018-11-05T22:34:27.466Z,200.83
2018-11-05T22:36:56.439Z,189.20
2018-11-05T22:39:24.959Z,180.40
2018-11-05T22:41:53.412Z,166.77
2018-11-05T22:44:21.860Z,159.47
2018-11-05T22:46:50.274Z,157.23
2018-11-05T22:49:18.702Z,153.97
2018-11-05T22:51:47.135Z,153.13
2018-11-05T22:54:15.623Z,152.33
2018-11-05T22:56:44.035Z,139.03
2018-11-05T22:59:12.464Z,95.37
2018-11-05T23:01:46.119Z,90.63
2018-11-05T23:04:14.547Z,88.57
2018-11-05T23:06:42.965Z,98.87
2018-11-05T23:09:11.400Z,98.77
2018-11-05T23:11:39.800Z,94.33
2018-11-05T23:14:08.397Z,170.13
2018-11-05T23:16:36.812Z,151.40
2018-11-05T23:19:06.212Z,119.50
2018-11-05T23:21:34.614Z,118.60
2018-11-05T23:24:03.007Z,123.93
2018-11-05T23:26:31.476Z,116.40
2018-11-05T23:28:59.913Z,126.70
2018-11-05T23:31:28.319Z,119.53
2018-11-05T23:33:56.722Z,121.13
2018-11-05T23:36:25.243Z,117.07
2018-11-05T23:38:53.706Z,126.60
2018-11-05T23:41:22.118Z,130.40
2018-11-05T23:43:50.520Z,123.97
2018-11-05T23:46:18.937Z,131.07
2018-11-05T23:48:47.328Z,133.00
2018-11-05T23:51:15.748Z,136.37
2018-11-05T23:53:44.170Z,132.77
2018-11-05T23:56:12.656Z,124.33
2018-11-05T23:58:41.084Z,145.80
